CheckWX is a tool to help pilots better visualize weather data.  It is not intended as a substitute for an official pre-flight weather briefing.

04:37:31 UTC

C35 METAR
Reedsburg Municipal Airport
Reedsburg, Wisconsin, USA
Current

23 mins ago

KC35 170415Z AUTO 00000KT 10SM CLR 19/17 A3012 RMK AO2 T01900172 PWINO
Observed
Sep-17 @ 04:15 UTC
Visibility
10 SM
Flight Rules
VFR
Cloud Levels
  • Clear skies
Temperature
19°C / 66°F
Dewpoint
17°C / 63°F
Humidity
88%
Altimeter
30.12" Hg
Pressure
1020.02 hPa
Previous

43 mins ago

KC35 170355Z AUTO 13003KT 10SM CLR 19/17 A3012 RMK AO2 T01880173 PWINO
Observed
Sep-17 @ 03:55 UTC
Wind
  • 130° at 3 KTS
Visibility
10 SM
Flight Rules
VFR
Cloud Levels
  • Clear skies
Temperature
19°C / 66°F
Dewpoint
17°C / 63°F
Humidity
88%
Altimeter
30.12" Hg
Pressure
1020.02 hPa
Previous

1 hour ago

KC35 170335Z AUTO 12003KT 10SM CLR 19/18 A3011 RMK AO2 T01930175 PWINO
Observed
Sep-17 @ 03:35 UTC
Wind
  • 120° at 3 KTS
Visibility
10 SM
Flight Rules
VFR
Cloud Levels
  • Clear skies
Temperature
19°C / 66°F
Dewpoint
18°C / 64°F
Humidity
94%
Altimeter
30.11" Hg
Pressure
1019.62 hPa